Time;durP1;ratioP1;P1;durP2;ratioP2;P2;SDS_P1;SDS_P2;PMS_P1;PMS_P2;Temp;Humidity;BMP_temperature;BMP_pressure;BME280_temperature;BME280_humidity;BME280_pressure;Samples;Min_cycle;Max_cycle;Signal;HPM_P1;HPM_P2
2021/11/19 00:00:57;;;;;;;4.93;3.72;;;11.90;95.90;;;;;;5028445;28;20041;-59
2021/11/19 00:03:24;;;;;;;6.90;2.90;;;11.80;95.90;;;;;;5027923;28;20054;-58
2021/11/19 00:05:51;;;;;;;5.47;3.50;;;11.70;95.70;;;;;;5028175;28;20072;-63
2021/11/19 00:08:21;;;;;;;7.40;3.75;;;11.70;95.90;;;;;;5028775;28;20111;-58
2021/11/19 00:10:48;;;;;;;5.28;3.80;;;11.70;96.20;;;;;;5029248;28;20045;-59
2021/11/19 00:13:14;;;;;;;8.90;4.53;;;11.60;96.10;;;;;;5023290;28;20098;-58
2021/11/19 00:15:41;;;;;;;7.53;3.85;;;11.60;96.30;;;;;;5025596;28;20516;-58
2021/11/19 00:18:08;;;;;;;6.90;3.65;;;11.60;96.50;;;;;;5028729;28;20083;-57
2021/11/19 00:20:35;;;;;;;6.38;4.57;;;11.60;96.30;;;;;;5017983;28;20053;-57
2021/11/19 00:23:04;;;;;;;11.77;4.50;;;11.60;96.20;;;;;;5029167;28;20042;-58
2021/11/19 00:25:31;;;;;;;8.70;4.40;;;11.60;96.30;;;;;;5024549;28;20045;-59
2021/11/19 00:27:58;;;;;;;7.13;4.50;;;11.60;96.50;;;;;;5026012;28;20049;-57
2021/11/19 00:30:26;;;;;;;7.10;4.10;;;11.60;96.30;;;;;;5015519;28;20072;-54
2021/11/19 00:32:53;;;;;;;7.30;4.15;;;11.60;96.40;;;;;;5024480;28;20049;-56
2021/11/19 00:35:20;;;;;;;9.27;4.75;;;11.60;96.40;;;;;;5028696;28;20049;-59
2021/11/19 00:37:49;;;;;;;7.32;4.47;;;11.60;96.30;;;;;;5024967;28;20497;-58
2021/11/19 00:40:21;;;;;;;8.73;4.18;;;11.60;96.40;;;;;;5027295;28;20623;-59
2021/11/19 00:42:48;;;;;;;6.90;4.25;;;11.60;96.60;;;;;;5023961;28;20115;-58
2021/11/19 00:45:15;;;;;;;8.45;4.80;;;11.60;96.50;;;;;;5023794;28;20054;-57
2021/11/19 00:47:48;;;;;;;6.70;4.38;;;11.60;96.50;;;;;;5020603;28;20049;-57
2021/11/19 00:50:15;;;;;;;10.95;4.93;;;11.60;96.30;;;;;;5028297;28;20509;-57
2021/11/19 00:52:42;;;;;;;7.68;4.32;;;11.60;96.40;;;;;;5025953;28;20452;-58
2021/11/19 00:55:09;;;;;;;6.50;4.40;;;11.60;96.40;;;;;;5021501;28;20092;-57
2021/11/19 00:57:36;;;;;;;7.70;4.55;;;11.60;96.30;;;;;;5016697;28;20053;-55
2021/11/19 01:00:06;;;;;;;7.68;4.30;;;11.60;96.40;;;;;;5026689;28;20099;-57
2021/11/19 01:02:33;;;;;;;12.95;5.38;;;11.50;96.50;;;;;;5016155;28;20500;-56
2021/11/19 01:05:00;;;;;;;8.77;5.45;;;11.60;96.40;;;;;;5021082;28;20045;-55
2021/11/19 01:07:27;;;;;;;7.57;4.25;;;11.50;96.50;;;;;;5012573;28;20555;-58
2021/11/19 01:09:58;;;;;;;7.00;4.78;;;11.50;96.50;;;;;;5017457;28;20420;-56
2021/11/19 01:12:27;;;;;;;8.75;4.88;;;11.50;96.50;;;;;;5012711;28;20041;-57
2021/11/19 01:15:03;;;;;;;8.55;5.13;;;11.50;96.40;;;;;;5027620;28;20046;-56
2021/11/19 01:17:44;;;;;;;7.75;5.15;;;11.50;96.60;;;;;;5026814;28;20320;-57
2021/11/19 01:20:17;;;;;;;9.98;5.30;;;11.50;96.60;;;;;;5027723;28;20068;-58
2021/11/19 01:22:46;;;;;;;9.93;5.25;;;11.50;96.60;;;;;;5027064;28;20099;-56
2021/11/19 01:25:16;;;;;;;7.55;5.20;;;11.40;96.40;;;;;;5027972;28;20049;-56
2021/11/19 01:27:43;;;;;;;9.00;5.65;;;11.50;96.60;;;;;;5019767;28;20133;-58
2021/11/19 01:30:18;;;;;;;8.02;5.28;;;11.40;96.50;;;;;;5026703;28;20393;-56
2021/11/19 01:32:45;;;;;;;6.47;4.50;;;11.40;96.60;;;;;;5012742;28;20042;-58
2021/11/19 01:35:12;;;;;;;7.47;4.88;;;11.40;96.50;;;;;;5031083;28;20107;-56
2021/11/19 01:37:39;;;;;;;10.50;4.65;;;11.40;96.60;;;;;;5031609;28;20041;-59
2021/11/19 01:40:07;;;;;;;11.43;5.63;;;11.40;96.50;;;;;;5030654;28;20045;-58
2021/11/19 01:42:36;;;;;;;7.18;5.20;;;11.40;96.60;;;;;;5031104;28;20107;-58
2021/11/19 01:45:11;;;;;;;7.22;5.03;;;11.50;96.50;;;;;;5024062;28;20065;-59
2021/11/19 01:47:51;;;;;;;8.93;5.40;;;11.50;96.40;;;;;;5022107;28;20050;-56
2021/11/19 01:50:36;;;;;;;11.63;6.10;;;11.50;96.50;;;;;;5027885;28;20052;-56
2021/11/19 01:53:26;;;;;;;8.52;5.75;;;11.50;96.60;;;;;;5002741;28;20049;-60
2021/11/19 01:56:12;;;;;;;10.73;6.18;;;11.50;96.60;;;;;;5016588;28;20069;-59
2021/11/19 01:59:03;;;;;;;10.63;5.68;;;11.60;96.50;;;;;;5031307;28;20453;-55
2021/11/19 02:01:39;;;;;;;9.60;5.28;;;11.60;96.50;;;;;;5025492;28;20050;-56
2021/11/19 02:04:12;;;;;;;10.20;5.72;;;11.60;96.30;;;;;;5014773;28;20803;-57
2021/11/19 02:06:45;;;;;;;9.35;5.30;;;11.60;96.30;;;;;;5031291;28;20049;-58
2021/11/19 02:09:39;;;;;;;9.63;6.90;;;11.70;96.20;;;;;;5029684;28;20092;-57
2021/11/19 02:12:25;;;;;;;10.82;6.38;;;11.70;96.20;;;;;;5006436;28;20108;-58
2021/11/19 02:14:55;;;;;;;7.97;5.32;;;11.70;96.30;;;;;;5024589;28;20492;-57
2021/11/19 02:17:22;;;;;;;11.00;7.78;;;11.70;96.10;;;;;;5021978;28;20535;-55
2021/11/19 02:19:58;;;;;;;9.75;6.07;;;11.70;96.10;;;;;;5030686;28;20566;-58
2021/11/19 02:22:49;;;;;;;7.30;5.28;;;11.70;96.20;;;;;;5023135;28;20491;-56
2021/11/19 02:25:32;;;;;;;8.18;5.75;;;11.70;96.30;;;;;;5011524;28;20111;-57
2021/11/19 02:28:06;;;;;;;8.90;5.50;;;11.70;96.20;;;;;;5009779;28;20173;-58
2021/11/19 02:30:43;;;;;;;8.23;5.57;;;11.70;96.10;;;;;;5028702;28;20080;-57
2021/11/19 02:33:11;;;;;;;10.02;6.82;;;11.70;96.10;;;;;;5010775;28;20050;-55
2021/11/19 02:35:51;;;;;;;8.55;6.00;;;11.70;96.10;;;;;;5023693;28;20064;-56
2021/11/19 02:38:19;;;;;;;12.27;6.60;;;11.70;96.20;;;;;;5029704;28;20045;-59
2021/11/19 02:40:46;;;;;;;9.20;6.05;;;11.70;96.20;;;;;;5029343;28;20049;-59
2021/11/19 02:43:37;;;;;;;9.27;6.13;;;11.70;96.30;;;;;;5030508;28;20099;-61
2021/11/19 02:46:04;;;;;;;8.55;5.85;;;11.60;96.40;;;;;;5029180;28;20527;-59
2021/11/19 02:48:32;;;;;;;8.88;6.68;;;11.60;96.30;;;;;;5030340;28;20046;-57
2021/11/19 02:51:08;;;;;;;10.10;6.15;;;11.60;96.30;;;;;;5015586;28;20073;-58
2021/11/19 02:53:35;;;;;;;14.02;7.15;;;11.60;96.40;;;;;;5025135;28;20081;-59
2021/11/19 02:56:02;;;;;;;10.18;6.82;;;11.60;96.30;;;;;;5028968;28;20504;-58
2021/11/19 02:58:33;;;;;;;12.27;7.32;;;11.60;96.30;;;;;;5012624;28;20050;-56
2021/11/19 03:01:06;;;;;;;10.27;6.75;;;11.70;96.30;;;;;;5028674;28;20550;-56
2021/11/19 03:03:33;;;;;;;8.60;6.28;;;11.70;96.20;;;;;;5030005;28;20050;-55
2021/11/19 03:06:00;;;;;;;8.18;6.15;;;11.70;96.10;;;;;;5030187;28;20048;-61
2021/11/19 03:08:27;;;;;;;9.23;6.50;;;11.70;96.10;;;;;;5030540;28;20045;-57
2021/11/19 03:10:55;;;;;;;11.00;6.82;;;11.70;96.10;;;;;;5029909;28;20417;-57
2021/11/19 03:13:26;;;;;;;11.63;6.95;;;11.70;96.10;;;;;;5029225;28;20463;-57
2021/11/19 03:15:53;;;;;;;12.40;6.47;;;11.70;96.10;;;;;;5029562;28;20504;-56
2021/11/19 03:18:22;;;;;;;10.25;7.28;;;11.70;96.00;;;;;;5028185;28;20129;-56
2021/11/19 03:20:52;;;;;;;10.25;7.60;;;11.70;96.00;;;;;;5029161;28;20052;-58
2021/11/19 03:23:19;;;;;;;11.13;6.85;;;11.70;96.10;;;;;;5028151;28;20049;-56
2021/11/19 03:25:47;;;;;;;11.73;6.53;;;11.70;96.10;;;;;;5029761;28;20084;-57
2021/11/19 03:28:15;;;;;;;8.27;5.80;;;11.70;96.10;;;;;;5028133;28;20072;-58
2021/11/19 03:30:43;;;;;;;9.32;6.30;;;11.70;96.10;;;;;;5029607;28;20080;-57
2021/11/19 03:33:13;;;;;;;9.85;6.95;;;11.70;96.30;;;;;;5029582;28;20052;-56
2021/11/19 03:35:40;;;;;;;11.65;7.05;;;11.70;96.10;;;;;;5029392;28;20049;-57
2021/11/19 03:38:07;;;;;;;10.07;7.20;;;11.70;96.10;;;;;;5018563;28;20041;-58
2021/11/19 03:40:36;;;;;;;11.05;6.47;;;11.70;96.10;;;;;;5023945;28;20103;-57
2021/11/19 03:43:05;;;;;;;9.45;6.40;;;11.80;96.10;;;;;;5028089;28;20237;-55
2021/11/19 03:45:39;;;;;;;9.25;6.85;;;11.80;96.10;;;;;;5029600;28;20053;-57
2021/11/19 03:48:06;;;;;;;17.40;7.80;;;11.70;96.10;;;;;;5029222;28;20459;-57
2021/11/19 03:50:48;;;;;;;10.88;7.40;;;11.70;96.00;;;;;;5029331;28;20053;-61
2021/11/19 03:53:15;;;;;;;10.57;6.82;;;11.80;96.10;;;;;;5028310;28;20124;-56
2021/11/19 03:55:46;;;;;;;10.18;7.13;;;11.80;96.10;;;;;;5027762;28;20080;-56
2021/11/19 03:58:14;;;;;;;9.75;5.97;;;11.80;96.00;;;;;;5028609;28;20144;-58
2021/11/19 04:00:44;;;;;;;12.57;6.60;;;11.80;96.00;;;;;;5027032;28;20057;-57
2021/11/19 04:03:11;;;;;;;8.93;6.18;;;11.90;96.00;;;;;;5008295;28;20054;-58
2021/11/19 04:05:38;;;;;;;9.93;6.55;;;11.90;95.90;;;;;;5028156;28;20484;-57
2021/11/19 04:08:05;;;;;;;10.30;6.28;;;11.90;95.90;;;;;;5028684;28;20054;-57
2021/11/19 04:10:33;;;;;;;8.20;6.10;;;11.90;95.90;;;;;;5028887;28;20046;-58
2021/11/19 04:13:00;;;;;;;9.35;5.68;;;11.90;95.80;;;;;;5027933;28;20053;-55
2021/11/19 04:15:31;;;;;;;8.45;5.25;;;11.90;95.80;;;;;;5028565;28;20047;-56
2021/11/19 04:17:58;;;;;;;8.63;5.97;;;11.90;95.80;;;;;;5027603;28;20042;-55
2021/11/19 04:20:25;;;;;;;9.43;5.88;;;11.90;95.80;;;;;;5028423;28;20099;-57
2021/11/19 04:22:52;;;;;;;8.00;5.15;;;11.90;95.80;;;;;;5029221;28;20096;-55
2021/11/19 04:25:21;;;;;;;7.38;5.55;;;12.00;95.70;;;;;;5027516;28;20059;-56
2021/11/19 04:27:48;;;;;;;6.45;5.03;;;12.00;95.70;;;;;;5012233;28;20044;-57
2021/11/19 04:30:17;;;;;;;7.28;5.80;;;11.90;95.70;;;;;;5027814;28;20101;-57
2021/11/19 04:32:44;;;;;;;9.02;5.43;;;11.90;95.70;;;;;;5028179;28;20095;-56
2021/11/19 04:35:11;;;;;;;9.48;5.43;;;11.90;95.70;;;;;;5025443;28;20076;-56
2021/11/19 04:37:38;;;;;;;6.40;5.00;;;11.90;95.80;;;;;;5026901;28;20045;-56
2021/11/19 04:40:06;;;;;;;6.40;4.95;;;11.90;95.80;;;;;;5028352;28;20492;-56
2021/11/19 04:42:35;;;;;;;7.75;5.35;;;12.00;95.80;;;;;;5026362;28;20328;-56
2021/11/19 04:45:02;;;;;;;5.90;4.75;;;12.00;95.70;;;;;;5028064;28;20049;-60
2021/11/19 04:47:29;;;;;;;8.07;4.90;;;12.00;95.70;;;;;;5026745;28;20072;-57
2021/11/19 04:49:56;;;;;;;7.45;5.53;;;11.90;95.70;;;;;;5028152;28;20453;-58
2021/11/19 04:52:22;;;;;;;9.35;5.10;;;11.90;95.70;;;;;;5028314;28;20080;-56
2021/11/19 04:54:49;;;;;;;9.18;6.05;;;11.90;95.70;;;;;;5027658;28;20053;-57
2021/11/19 04:57:17;;;;;;;7.82;6.13;;;11.90;95.80;;;;;;5028015;28;20054;-57
2021/11/19 04:59:44;;;;;;;11.73;5.90;;;11.90;95.80;;;;;;5028168;28;20076;-56
2021/11/19 05:02:15;;;;;;;11.10;5.82;;;11.80;95.80;;;;;;5028106;28;20048;-57
2021/11/19 05:04:42;;;;;;;9.65;6.47;;;11.80;95.80;;;;;;5029889;28;20060;-58
2021/11/19 05:07:09;;;;;;;8.10;5.65;;;11.80;95.80;;;;;;5031917;28;20045;-56
2021/11/19 05:09:36;;;;;;;9.88;6.22;;;11.90;95.70;;;;;;5032206;28;20042;-57
2021/11/19 05:12:22;;;;;;;8.88;5.72;;;11.80;95.80;;;;;;5031381;28;20041;-56
2021/11/19 05:14:49;;;;;;;7.25;5.30;;;11.90;95.80;;;;;;5031903;28;20053;-57
2021/11/19 05:17:17;;;;;;;7.07;5.03;;;11.90;95.70;;;;;;5030161;28;20050;-58
2021/11/19 05:19:44;;;;;;;8.38;5.32;;;11.90;95.70;;;;;;5032134;28;20060;-56
2021/11/19 05:22:11;;;;;;;7.25;5.22;;;11.90;95.70;;;;;;5031657;28;20393;-58
2021/11/19 05:24:38;;;;;;;10.60;6.03;;;11.90;95.70;;;;;;5031944;28;20107;-56
2021/11/19 05:27:05;;;;;;;7.68;5.35;;;11.90;95.70;;;;;;5031171;28;20046;-59
2021/11/19 05:29:32;;;;;;;8.82;5.22;;;11.90;95.70;;;;;;5031693;28;20058;-61
2021/11/19 05:31:59;;;;;;;12.70;6.32;;;11.90;95.70;;;;;;5030419;28;20064;-57
2021/11/19 05:34:29;;;;;;;8.23;5.55;;;11.90;95.70;;;;;;5031659;28;20392;-57
2021/11/19 05:36:55;;;;;;;7.90;5.68;;;12.00;95.70;;;;;;5031247;28;20046;-57
2021/11/19 05:39:22;;;;;;;7.88;5.88;;;11.90;95.70;;;;;;5030122;28;20061;-58
2021/11/19 05:41:50;;;;;;;12.35;6.13;;;11.90;95.70;;;;;;5029313;28;20045;-57
2021/11/19 05:44:17;;;;;;;8.10;5.82;;;11.90;95.70;;;;;;5015762;28;20100;-56
2021/11/19 05:46:46;;;;;;;11.35;6.55;;;11.90;95.70;;;;;;5015767;28;20250;-57
2021/11/19 05:49:15;;;;;;;7.55;4.90;;;12.00;96.00;;;;;;5019793;28;20046;-57
2021/11/19 05:51:42;;;;;;;8.13;5.82;;;11.90;95.70;;;;;;5031275;28;20111;-58
2021/11/19 05:54:10;;;;;;;9.38;6.07;;;11.90;95.70;;;;;;5031099;28;20045;-58
2021/11/19 05:56:37;;;;;;;8.77;5.93;;;11.90;95.70;;;;;;5030988;28;20513;-58
2021/11/19 05:59:07;;;;;;;8.57;5.85;;;11.90;95.70;;;;;;5028097;28;20061;-57
2021/11/19 06:01:34;;;;;;;8.32;6.32;;;11.80;95.70;;;;;;5031433;28;20053;-56
2021/11/19 06:04:01;;;;;;;12.10;5.68;;;11.90;95.80;;;;;;5030958;28;20103;-59
2021/11/19 06:06:27;;;;;;;8.80;5.90;;;12.00;95.80;;;;;;5031340;28;20045;-55
2021/11/19 06:08:56;;;;;;;11.20;6.47;;;11.90;95.70;;;;;;5030538;28;20057;-58
2021/11/19 06:11:28;;;;;;;8.73;5.70;;;11.90;95.80;;;;;;5031007;28;20053;-57
2021/11/19 06:14:10;;;;;;;9.70;6.43;;;11.90;95.80;;;;;;5028514;28;20111;-57
2021/11/19 06:16:39;;;;;;;9.43;6.00;;;12.00;95.80;;;;;;5010650;28;20528;-57
2021/11/19 06:19:12;;;;;;;11.00;6.45;;;12.00;95.70;;;;;;5027024;28;20547;-56
2021/11/19 06:21:43;;;;;;;9.27;6.00;;;12.00;95.80;;;;;;5011261;28;20061;-58
2021/11/19 06:24:19;;;;;;;9.00;6.38;;;12.00;95.80;;;;;;5006363;28;20092;-55
2021/11/19 06:26:51;;;;;;;8.02;5.57;;;12.00;95.80;;;;;;5025573;28;20061;-58
2021/11/19 06:29:18;;;;;;;8.82;5.90;;;12.00;95.70;;;;;;5024518;28;20041;-56
2021/11/19 06:31:48;;;;;;;9.35;6.40;;;12.00;95.70;;;;;;5030632;28;20057;-57
2021/11/19 06:34:15;;;;;;;9.60;6.40;;;12.00;95.70;;;;;;5029807;28;20400;-56
2021/11/19 06:36:44;;;;;;;6.55;5.65;;;12.00;95.70;;;;;;5029645;28;20053;-58
2021/11/19 06:39:31;;;;;;;10.35;6.70;;;12.00;95.70;;;;;;5023391;28;20045;-56
2021/11/19 06:41:57;;;;;;;10.15;7.18;;;12.00;95.80;;;;;;5029370;28;20053;-58
2021/11/19 06:44:25;;;;;;;8.90;6.30;;;12.00;95.70;;;;;;5029521;28;20084;-57
2021/11/19 06:46:52;;;;;;;8.57;6.38;;;12.00;95.70;;;;;;5030007;28;20041;-56
2021/11/19 06:49:19;;;;;;;8.95;5.60;;;12.00;95.70;;;;;;5028547;28;20099;-59
2021/11/19 06:51:46;;;;;;;8.48;6.05;;;12.00;95.60;;;;;;5029690;28;20048;-58
2021/11/19 06:54:13;;;;;;;13.15;7.03;;;12.10;95.60;;;;;;5021255;28;20049;-58
2021/11/19 06:56:40;;;;;;;8.10;6.10;;;12.10;95.60;;;;;;5029427;28;20087;-55
2021/11/19 06:59:10;;;;;;;11.02;6.63;;;12.00;95.90;;;;;;5029152;28;20190;-58
2021/11/19 07:01:37;;;;;;;11.00;6.15;;;12.10;95.60;;;;;;5026828;28;20492;-57
2021/11/19 07:04:04;;;;;;;10.23;5.78;;;12.10;95.60;;;;;;5029656;28;20538;-56
2021/11/19 07:06:31;;;;;;;10.18;5.45;;;12.10;95.60;;;;;;5029719;28;20110;-60
2021/11/19 07:08:58;;;;;;;7.82;5.32;;;12.10;95.60;;;;;;5029491;28;20053;-57
2021/11/19 07:11:26;;;;;;;7.28;5.00;;;12.10;95.60;;;;;;5027623;28;20111;-59
2021/11/19 07:13:53;;;;;;;7.55;5.35;;;12.10;95.50;;;;;;5027526;28;20488;-58
2021/11/19 07:16:24;;;;;;;8.10;5.70;;;12.10;95.50;;;;;;5027382;28;20045;-58
2021/11/19 07:18:52;;;;;;;9.35;5.75;;;12.10;95.50;;;;;;5028952;28;20053;-59
2021/11/19 07:21:19;;;;;;;11.05;6.20;;;12.10;95.50;;;;;;5028787;28;20492;-58
2021/11/19 07:23:46;;;;;;;8.50;5.47;;;12.10;95.50;;;;;;5029083;28;20120;-57
2021/11/19 07:26:13;;;;;;;5.60;4.60;;;12.10;95.50;;;;;;5028579;28;20476;-57
2021/11/19 07:28:40;;;;;;;14.00;5.50;;;12.10;95.40;;;;;;5028114;28;20049;-55
2021/11/19 07:31:08;;;;;;;6.78;4.57;;;12.20;95.30;;;;;;5028180;28;20068;-59
2021/11/19 07:33:36;;;;;;;8.95;5.20;;;12.10;95.30;;;;;;5026375;28;20045;-56
2021/11/19 07:36:06;;;;;;;5.70;4.22;;;12.10;95.30;;;;;;5026927;28;20054;-57
2021/11/19 07:38:34;;;;;;;5.05;4.15;;;12.10;95.20;;;;;;5028713;28;20136;-59
2021/11/19 07:41:01;;;;;;;6.78;4.95;;;12.10;95.20;;;;;;5028443;28;20408;-54
2021/11/19 07:43:30;;;;;;;7.30;4.68;;;12.10;95.10;;;;;;5027195;28;20058;-55
2021/11/19 07:45:57;;;;;;;11.82;5.25;;;12.10;95.10;;;;;;5026922;28;20611;-54
2021/11/19 07:48:30;;;;;;;7.05;4.47;;;12.20;95.10;;;;;;5028090;28;20060;-51
2021/11/19 07:50:58;;;;;;;9.50;5.03;;;12.10;94.80;;;;;;5027158;28;20049;-57
2021/11/19 07:53:26;;;;;;;9.40;4.40;;;12.10;94.90;;;;;;5028687;28;20224;-54
2021/11/19 07:55:54;;;;;;;7.15;5.00;;;12.00;94.80;;;;;;5028080;28;20124;-54
2021/11/19 07:58:21;;;;;;;5.45;4.00;;;12.00;94.90;;;;;;5028017;28;20042;-55
2021/11/19 08:00:48;;;;;;;6.63;4.53;;;12.10;94.90;;;;;;5027924;28;20053;-56
2021/11/19 08:03:15;;;;;;;5.97;4.68;;;12.00;94.80;;;;;;5026443;28;20144;-53
2021/11/19 08:05:45;;;;;;;6.82;4.15;;;12.00;94.70;;;;;;5027806;28;20092;-54
2021/11/19 08:08:12;;;;;;;9.65;4.30;;;12.10;94.90;;;;;;5027345;28;20559;-54
2021/11/19 08:10:39;;;;;;;7.13;4.57;;;12.00;94.80;;;;;;5026155;28;20084;-57
2021/11/19 08:13:05;;;;;;;7.10;4.30;;;12.00;94.90;;;;;;5025037;28;20099;-57
2021/11/19 08:15:33;;;;;;;4.78;3.70;;;12.10;94.90;;;;;;5025869;28;20164;-55
2021/11/19 08:18:00;;;;;;;11.77;4.57;;;12.10;94.80;;;;;;5017103;28;20494;-54
2021/11/19 08:20:38;;;;;;;6.68;4.20;;;12.20;94.90;;;;;;5027581;28;20087;-52
2021/11/19 08:23:14;;;;;;;6.65;4.55;;;12.20;94.70;;;;;;5025615;28;20096;-54
2021/11/19 08:25:40;;;;;;;5.28;4.05;;;12.10;94.50;;;;;;5027714;28;20076;-52
2021/11/19 08:28:29;;;;;;;5.93;4.05;;;12.10;94.70;;;;;;5027748;28;20045;-59
2021/11/19 08:30:55;;;;;;;5.38;3.67;;;12.10;94.90;;;;;;5008619;28;20049;-53
2021/11/19 08:33:23;;;;;;;11.32;4.95;;;12.20;94.50;;;;;;5023116;28;20045;-55
2021/11/19 08:35:49;;;;;;;11.35;4.65;;;12.20;94.50;;;;;;5027370;28;20214;-51
2021/11/19 08:38:18;;;;;;;8.30;4.80;;;12.20;94.50;;;;;;5027539;28;20111;-62
2021/11/19 08:40:46;;;;;;;4.90;3.47;;;12.20;94.40;;;;;;5027713;28;20053;-55
2021/11/19 08:43:36;;;;;;;8.35;4.72;;;12.20;94.40;;;;;;5025925;28;20517;-53
2021/11/19 08:46:04;;;;;;;5.55;4.15;;;12.30;94.30;;;;;;5027673;28;20092;-55
2021/11/19 08:48:31;;;;;;;5.72;4.30;;;12.30;94.40;;;;;;5027480;28;20045;-54
2021/11/19 08:50:59;;;;;;;6.78;4.57;;;12.30;94.60;;;;;;5027100;28;20183;-55
2021/11/19 08:53:25;;;;;;;6.78;4.32;;;12.30;94.30;;;;;;5026802;28;20045;-51
2021/11/19 08:55:59;;;;;;;7.65;4.63;;;12.30;94.30;;;;;;5027201;28;20571;-52
2021/11/19 08:58:32;;;;;;;13.10;4.30;;;12.30;94.10;;;;;;5027504;28;20046;-54
2021/11/19 09:01:00;;;;;;;13.52;3.97;;;12.30;94.10;;;;;;5026170;28;20127;-56
2021/11/19 09:03:27;;;;;;;8.02;4.68;;;12.30;93.90;;;;;;5026064;28;20103;-55
2021/11/19 09:05:54;;;;;;;9.93;4.35;;;12.40;94.20;;;;;;5026456;28;20107;-53
2021/11/19 09:08:22;;;;;;;6.82;4.07;;;12.40;94.10;;;;;;5027664;28;20099;-55
2021/11/19 09:10:51;;;;;;;4.82;3.65;;;12.50;94.00;;;;;;5027461;28;20088;-55
2021/11/19 09:13:18;;;;;;;6.45;4.10;;;12.50;93.90;;;;;;5026986;28;20054;-51
2021/11/19 09:15:45;;;;;;;6.50;4.05;;;12.40;93.90;;;;;;5026642;28;20120;-54
2021/11/19 09:18:42;;;;;;;5.35;3.90;;;12.40;93.90;;;;;;5027907;28;20507;-55
2021/11/19 09:21:23;;;;;;;4.25;2.97;;;12.50;93.70;;;;;;5025282;28;20133;-55
2021/11/19 09:23:55;;;;;;;6.43;3.58;;;12.50;93.60;;;;;;5027127;28;20096;-53
2021/11/19 09:26:33;;;;;;;4.55;3.15;;;12.50;93.80;;;;;;5026907;28;20144;-53
2021/11/19 09:29:00;;;;;;;7.00;3.17;;;12.50;93.60;;;;;;5025863;28;20076;-53
2021/11/19 09:31:27;;;;;;;6.90;3.40;;;12.50;93.50;;;;;;5026501;28;20050;-53
2021/11/19 09:33:54;;;;;;;6.68;3.30;;;12.50;93.60;;;;;;5027539;28;20050;-54
2021/11/19 09:36:21;;;;;;;4.07;2.25;;;12.50;93.60;;;;;;5027913;28;20115;-54
2021/11/19 09:38:48;;;;;;;4.18;2.70;;;12.50;93.40;;;;;;5027801;28;20041;-53
2021/11/19 09:41:36;;;;;;;5.45;3.10;;;12.50;93.30;;;;;;5026554;28;20103;-53
2021/11/19 09:44:06;;;;;;;7.32;3.20;;;12.50;92.80;;;;;;5009706;28;20046;-54
2021/11/19 09:46:33;;;;;;;5.50;2.85;;;12.50;93.20;;;;;;5025198;28;20046;-53
2021/11/19 09:49:18;;;;;;;4.25;2.30;;;12.50;93.30;;;;;;5027466;28;20084;-53
2021/11/19 09:52:03;;;;;;;4.20;2.30;;;12.50;93.00;;;;;;5029003;28;20084;-50
2021/11/19 09:55:04;;;;;;;3.45;2.55;;;12.50;93.10;;;;;;5030686;28;20215;-51
2021/11/19 09:58:16;;;;;;;3.08;1.92;;;12.40;92.50;;;;;;5020055;28;20045;-54
2021/11/19 10:01:08;;;;;;;3.55;2.53;;;12.50;92.50;;;;;;5027520;28;20081;-52
2021/11/19 10:03:35;;;;;;;3.42;2.28;;;12.40;92.50;;;;;;5030509;28;20487;-55
2021/11/19 10:06:07;;;;;;;2.95;2.10;;;12.50;93.00;;;;;;5030480;28;20557;-54
2021/11/19 10:08:55;;;;;;;3.70;2.08;;;12.50;93.10;;;;;;5030495;28;20403;-54
2021/11/19 10:11:25;;;;;;;2.53;1.80;;;12.50;92.50;;;;;;5030062;28;20049;-54
2021/11/19 10:14:04;;;;;;;8.90;2.70;;;12.50;93.00;;;;;;5029399;28;20049;-55
2021/11/19 10:16:53;;;;;;;4.18;2.45;;;12.50;92.90;;;;;;5030310;28;20500;-52
2021/11/19 10:19:39;;;;;;;3.10;2.03;;;12.50;92.60;;;;;;5030669;28;20042;-54
2021/11/19 10:22:09;;;;;;;7.10;2.50;;;12.50;92.90;;;;;;5029211;28;20095;-54
2021/11/19 10:24:44;;;;;;;2.50;2.08;;;12.60;92.70;;;;;;5030204;28;20485;-52
2021/11/19 10:27:14;;;;;;;3.80;2.08;;;12.50;92.80;;;;;;5029714;28;20103;-55
2021/11/19 10:29:45;;;;;;;4.30;2.25;;;12.60;92.60;;;;;;5030444;28;20057;-53
2021/11/19 10:32:13;;;;;;;7.38;3.08;;;12.60;92.90;;;;;;5030020;28;20095;-55
2021/11/19 10:35:04;;;;;;;39.70;5.15;;;12.60;92.90;;;;;;5030207;28;20081;-52
2021/11/19 10:38:00;;;;;;;5.10;2.40;;;12.60;92.40;;;;;;5025128;28;20045;-53
2021/11/19 10:41:05;;;;;;;3.60;2.28;;;12.50;91.40;;;;;;5008743;28;20077;-54
2021/11/19 10:44:06;;;;;;;3.63;2.40;;;12.50;92.40;;;;;;5013027;28;20100;-55
2021/11/19 10:47:37;;;;;;;3.05;2.28;;;12.40;92.10;;;;;;5029762;28;20080;-55
2021/11/19 10:50:43;;;;;;;2.83;1.98;;;12.50;91.90;;;;;;4979576;28;20046;-55
2021/11/19 10:53:48;;;;;;;3.03;1.98;;;12.50;92.40;;;;;;5029688;28;20049;-55
2021/11/19 10:56:34;;;;;;;2.60;1.65;;;12.50;92.20;;;;;;5009583;28;20116;-54
2021/11/19 10:59:33;;;;;;;4.20;2.35;;;12.50;92.00;;;;;;5029164;28;20500;-54
2021/11/19 11:02:12;;;;;;;2.88;1.92;;;12.50;92.00;;;;;;5028513;28;20087;-55
2021/11/19 11:04:52;;;;;;;13.18;3.03;;;12.60;92.40;;;;;;5028264;28;20106;-53
2021/11/19 11:07:30;;;;;;;13.05;3.70;;;12.50;92.10;;;;;;5029564;28;20125;-55
2021/11/19 11:09:57;;;;;;;4.72;2.10;;;12.50;92.30;;;;;;5012958;28;20088;-53
2021/11/19 11:12:27;;;;;;;3.38;2.13;;;12.60;92.40;;;;;;5029152;28;20120;-54
2021/11/19 11:15:20;;;;;;;3.67;2.63;;;12.60;92.40;;;;;;5029372;28;20111;-53
2021/11/19 11:18:01;;;;;;;4.03;2.73;;;12.50;91.60;;;;;;5006181;28;20079;-57
2021/11/19 11:20:34;;;;;;;11.25;3.08;;;12.60;92.40;;;;;;5028045;28;20107;-54
2021/11/19 11:23:22;;;;;;;6.00;2.63;;;12.60;92.30;;;;;;5028660;28;20045;-54
2021/11/19 11:26:14;;;;;;;5.32;2.53;;;12.70;92.50;;;;;;5028079;28;20058;-52
2021/11/19 11:28:51;;;;;;;4.57;3.13;;;12.60;92.10;;;;;;5027548;28;20046;-55
2021/11/19 11:31:18;;;;;;;4.80;3.22;;;12.70;92.20;;;;;;5028997;28;20236;-51
2021/11/19 11:33:57;;;;;;;3.65;2.63;;;12.60;92.40;;;;;;5028350;28;20451;-55
2021/11/19 11:37:05;;;;;;;4.65;3.40;;;12.60;92.10;;;;;;5028595;28;20148;-52
2021/11/19 11:39:55;;;;;;;5.10;3.13;;;12.60;91.70;;;;;;4989962;28;20084;-55
2021/11/19 11:42:30;;;;;;;5.50;3.00;;;12.60;92.10;;;;;;5002462;28;20085;-52
2021/11/19 11:44:59;;;;;;;6.25;2.90;;;12.60;92.10;;;;;;5028238;28;20336;-53
2021/11/19 11:47:30;;;;;;;6.00;3.00;;;12.60;92.30;;;;;;5023877;28;20658;-53
2021/11/19 11:50:17;;;;;;;6.00;3.65;;;12.60;92.20;;;;;;5023325;28;20049;-52
2021/11/19 11:52:53;;;;;;;6.00;2.80;;;12.60;92.20;;;;;;5007513;28;20046;-51
2021/11/19 11:55:44;;;;;;;6.82;2.58;;;12.60;92.10;;;;;;5024608;28;20085;-52
2021/11/19 11:58:32;;;;;;;5.72;3.25;;;12.60;91.80;;;;;;5015460;28;20049;-54
2021/11/19 12:01:26;;;;;;;7.20;3.15;;;12.70;91.80;;;;;;5026674;28;20091;-53
2021/11/19 12:04:01;;;;;;;3.20;2.60;;;12.60;91.50;;;;;;5027091;28;20505;-52
2021/11/19 12:06:40;;;;;;;3.97;2.50;;;12.50;92.10;;;;;;5023383;28;20493;-55
2021/11/19 12:09:18;;;;;;;4.53;3.00;;;12.50;92.00;;;;;;5027883;28;20057;-54
2021/11/19 12:12:12;;;;;;;6.07;2.58;;;12.60;92.00;;;;;;5011171;28;20080;-52
2021/11/19 12:15:12;;;;;;;9.55;3.55;;;12.50;91.80;;;;;;5021720;28;20140;-53
2021/11/19 12:18:07;;;;;;;13.95;3.55;;;12.60;91.70;;;;;;5020319;28;20050;-55
2021/11/19 12:21:08;;;;;;;6.32;3.47;;;12.60;91.70;;;;;;5026870;28;20107;-55
2021/11/19 12:23:52;;;;;;;8.02;3.08;;;12.60;91.70;;;;;;5028609;28;20058;-55
2021/11/19 12:26:19;;;;;;;5.55;2.90;;;12.70;91.70;;;;;;5026404;28;20084;-52
2021/11/19 12:28:48;;;;;;;6.40;2.75;;;12.70;92.20;;;;;;5026915;28;20080;-54
2021/11/19 12:31:36;;;;;;;4.80;2.78;;;12.70;92.00;;;;;;5026314;28;20161;-55
2021/11/19 12:34:24;;;;;;;3.67;2.28;;;12.80;91.40;;;;;;5008621;28;20080;-55
2021/11/19 12:37:02;;;;;;;6.50;2.50;;;12.70;91.40;;;;;;5023989;28;20053;-54
2021/11/19 12:39:32;;;;;;;5.05;2.30;;;12.70;91.80;;;;;;5027998;28;20091;-54
2021/11/19 12:42:13;;;;;;;6.00;2.53;;;12.70;92.00;;;;;;5026352;28;20057;-52
2021/11/19 12:44:48;;;;;;;2.70;2.15;;;12.70;91.00;;;;;;5008847;28;20116;-50
2021/11/19 12:47:53;;;;;;;2.97;1.88;;;12.70;91.40;;;;;;5040800;28;20062;-54
2021/11/19 12:50:52;;;;;;;7.13;2.92;;;12.60;91.10;;;;;;5028388;28;20053;-54
2021/11/19 12:53:49;;;;;;;3.85;2.35;;;12.60;91.80;;;;;;4994366;28;20077;-55
2021/11/19 12:56:37;;;;;;;4.18;2.50;;;12.50;91.60;;;;;;5027410;28;20077;-55
2021/11/19 12:59:39;;;;;;;9.60;3.03;;;12.50;91.90;;;;;;5027648;28;20132;-53
2021/11/19 13:02:32;;;;;;;6.43;2.70;;;12.60;92.00;;;;;;5027612;28;20050;-53
2021/11/19 13:05:04;;;;;;;3.75;2.60;;;12.70;91.80;;;;;;5027362;28;20072;-54
2021/11/19 13:08:08;;;;;;;4.72;2.10;;;12.50;91.70;;;;;;5026366;28;20103;-53
2021/11/19 13:10:38;;;;;;;3.65;2.15;;;12.50;91.80;;;;;;5007793;28;20103;-53
2021/11/19 13:13:26;;;;;;;6.78;2.83;;;12.40;91.90;;;;;;5023405;28;20085;-51
2021/11/19 13:16:26;;;;;;;3.35;2.13;;;12.40;91.70;;;;;;5027477;28;20077;-55
2021/11/19 13:18:54;;;;;;;3.35;2.42;;;12.40;91.50;;;;;;5025418;28;20385;-54